sensor_id;sensor_type;location;lat;lon;timestamp;pressure;altitude;pressure_sealevel;temperature;humidity
68822;BME280;55834;50.870;4.606;2023-03-16T00:00:48;101050.44;;;5.73;48.08
68822;BME280;55834;50.870;4.606;2023-03-16T00:03:14;101050.41;;;5.84;48.07
68822;BME280;55834;50.870;4.606;2023-03-16T00:05:50;101056.47;;;6.01;48.10
68822;BME280;55834;50.870;4.606;2023-03-16T00:08:17;101048.66;;;5.92;48.07
68822;BME280;55834;50.870;4.606;2023-03-16T00:10:44;101053.88;;;6.00;47.26
68822;BME280;55834;50.870;4.606;2023-03-16T00:13:16;101044.22;;;6.06;47.44
68822;BME280;55834;50.870;4.606;2023-03-16T00:15:56;101046.81;;;6.05;47.16
68822;BME280;55834;50.870;4.606;2023-03-16T00:18:24;101049.53;;;5.86;48.02
68822;BME280;55834;50.870;4.606;2023-03-16T00:20:55;101043.41;;;5.87;47.85
68822;BME280;55834;50.870;4.606;2023-03-16T00:23:22;101037.28;;;5.95;48.07
68822;BME280;55834;50.870;4.606;2023-03-16T00:25:53;101036.44;;;5.86;48.19
68822;BME280;55834;50.870;4.606;2023-03-16T00:28:19;101035.53;;;6.00;48.18
68822;BME280;55834;50.870;4.606;2023-03-16T00:30:46;101034.81;;;5.55;49.11
68822;BME280;55834;50.870;4.606;2023-03-16T00:33:11;101040.91;;;5.52;48.60
68822;BME280;55834;50.870;4.606;2023-03-16T00:35:37;101039.19;;;5.45;49.38
68822;BME280;55834;50.870;4.606;2023-03-16T00:38:02;101036.53;;;5.59;49.36
68822;BME280;55834;50.870;4.606;2023-03-16T00:40:28;101038.34;;;5.26;49.97
68822;BME280;55834;50.870;4.606;2023-03-16T00:42:55;101041.00;;;5.25;50.25
68822;BME280;55834;50.870;4.606;2023-03-16T00:45:20;101028.78;;;5.17;50.18
68822;BME280;55834;50.870;4.606;2023-03-16T00:47:47;101033.97;;;5.42;49.83
68822;BME280;55834;50.870;4.606;2023-03-16T00:50:13;101036.63;;;5.25;50.99
68822;BME280;55834;50.870;4.606;2023-03-16T00:52:40;101023.44;;;5.62;50.70
68822;BME280;55834;50.870;4.606;2023-03-16T00:55:06;101018.06;;;5.94;49.52
68822;BME280;55834;50.870;4.606;2023-03-16T00:57:33;101016.28;;;6.05;48.72
68822;BME280;55834;50.870;4.606;2023-03-16T00:59:58;101018.09;;;5.85;48.94
68822;BME280;55834;50.870;4.606;2023-03-16T01:02:24;101015.50;;;5.83;49.51
68822;BME280;55834;50.870;4.606;2023-03-16T01:04:51;101007.59;;;5.91;49.64
68822;BME280;55834;50.870;4.606;2023-03-16T01:07:19;101007.59;;;5.89;48.90
68822;BME280;55834;50.870;4.606;2023-03-16T01:09:46;101005.94;;;5.70;49.69
68822;BME280;55834;50.870;4.606;2023-03-16T01:12:14;101002.44;;;5.70;48.88
68822;BME280;55834;50.870;4.606;2023-03-16T01:14:40;100993.66;;;5.83;49.35
68822;BME280;55834;50.870;4.606;2023-03-16T01:17:07;100990.97;;;5.97;49.56
68822;BME280;55834;50.870;4.606;2023-03-16T01:19:34;100994.41;;;6.05;49.09
68822;BME280;55834;50.870;4.606;2023-03-16T01:22:04;100988.41;;;5.81;49.14
68822;BME280;55834;50.870;4.606;2023-03-16T01:24:30;100985.69;;;6.04;49.05
68822;BME280;55834;50.870;4.606;2023-03-16T01:26:55;100993.53;;;6.04;48.35
68822;BME280;55834;50.870;4.606;2023-03-16T01:29:21;100979.56;;;6.05;48.97
68822;BME280;55834;50.870;4.606;2023-03-16T01:31:46;100982.09;;;6.16;48.89
68822;BME280;55834;50.870;4.606;2023-03-16T01:34:14;100968.97;;;6.21;49.33
68822;BME280;55834;50.870;4.606;2023-03-16T01:36:46;100967.28;;;6.15;48.48
68822;BME280;55834;50.870;4.606;2023-03-16T01:39:12;100975.28;;;5.87;48.63
68822;BME280;55834;50.870;4.606;2023-03-16T01:41:38;100960.41;;;5.94;48.69
68822;BME280;55834;50.870;4.606;2023-03-16T01:44:05;100962.38;;;5.51;49.38
68822;BME280;55834;50.870;4.606;2023-03-16T01:46:30;100967.63;;;5.41;49.76
68822;BME280;55834;50.870;4.606;2023-03-16T01:51:40;100964.88;;;5.74;49.86
68822;BME280;55834;50.870;4.606;2023-03-16T01:57:00;100952.03;;;4.82;52.07
68822;BME280;55834;50.870;4.606;2023-03-16T01:59:47;100959.00;;;4.60;51.90
68822;BME280;55834;50.870;4.606;2023-03-16T02:02:16;100955.53;;;4.65;52.67
68822;BME280;55834;50.870;4.606;2023-03-16T02:07:23;100952.88;;;4.99;51.87
68822;BME280;55834;50.870;4.606;2023-03-16T02:09:51;100949.38;;;5.20;52.15
68822;BME280;55834;50.870;4.606;2023-03-16T02:12:18;100948.53;;;5.10;51.79
68822;BME280;55834;50.870;4.606;2023-03-16T02:14:45;100943.31;;;4.83;52.71
68822;BME280;55834;50.870;4.606;2023-03-16T02:17:13;100937.19;;;4.91;52.84
68822;BME280;55834;50.870;4.606;2023-03-16T02:19:52;100935.41;;;5.27;52.42
68822;BME280;55834;50.870;4.606;2023-03-16T02:22:21;100929.25;;;5.33;52.72
68822;BME280;55834;50.870;4.606;2023-03-16T02:24:50;100923.19;;;5.20;52.30
68822;BME280;55834;50.870;4.606;2023-03-16T02:27:25;100916.13;;;5.42;52.30
68822;BME280;55834;50.870;4.606;2023-03-16T02:30:10;100912.72;;;5.28;52.86
68822;BME280;55834;50.870;4.606;2023-03-16T02:32:38;100909.22;;;5.27;53.10
68822;BME280;55834;50.870;4.606;2023-03-16T02:35:05;100907.53;;;5.08;53.41
68822;BME280;55834;50.870;4.606;2023-03-16T02:37:30;100904.97;;;4.72;54.38
68822;BME280;55834;50.870;4.606;2023-03-16T02:39:59;100902.28;;;4.94;53.70
68822;BME280;55834;50.870;4.606;2023-03-16T02:42:26;100903.16;;;4.94;54.46
68822;BME280;55834;50.870;4.606;2023-03-16T02:45:02;100907.53;;;5.02;53.78
68822;BME280;55834;50.870;4.606;2023-03-16T02:47:30;100893.47;;;5.35;53.82
68822;BME280;55834;50.870;4.606;2023-03-16T02:49:58;100895.16;;;5.43;52.67
68822;BME280;55834;50.870;4.606;2023-03-16T02:52:23;100899.53;;;5.46;52.64
68822;BME280;55834;50.870;4.606;2023-03-16T02:54:48;100890.59;;;5.81;52.55
68822;BME280;55834;50.870;4.606;2023-03-16T02:57:14;100893.31;;;5.64;51.97
68822;BME280;55834;50.870;4.606;2023-03-16T02:59:39;100884.44;;;5.91;52.23
68822;BME280;55834;50.870;4.606;2023-03-16T03:02:05;100876.44;;;6.09;51.90
68822;BME280;55834;50.870;4.606;2023-03-16T03:04:31;100875.50;;;6.18;51.68
68822;BME280;55834;50.870;4.606;2023-03-16T03:06:57;100871.94;;;6.24;51.40
68822;BME280;55834;50.870;4.606;2023-03-16T03:09:28;100872.75;;;6.30;51.06
68822;BME280;55834;50.870;4.606;2023-03-16T03:11:53;100868.34;;;6.36;50.87
68822;BME280;55834;50.870;4.606;2023-03-16T03:14:18;100860.44;;;6.39;51.20
68822;BME280;55834;50.870;4.606;2023-03-16T03:16:44;100864.84;;;6.37;50.98
68822;BME280;55834;50.870;4.606;2023-03-16T03:19:11;100868.44;;;6.26;51.58
68822;BME280;55834;50.870;4.606;2023-03-16T03:21:36;100864.00;;;6.34;51.19
68822;BME280;55834;50.870;4.606;2023-03-16T03:24:02;100855.22;;;6.40;51.21
68822;BME280;55834;50.870;4.606;2023-03-16T03:26:28;100857.81;;;6.43;50.88
68822;BME280;55834;50.870;4.606;2023-03-16T03:28:53;100856.00;;;6.47;50.67
68822;BME280;55834;50.870;4.606;2023-03-16T03:31:20;100854.22;;;6.50;51.05
68822;BME280;55834;50.870;4.606;2023-03-16T03:33:46;100856.00;;;6.47;50.50
68822;BME280;55834;50.870;4.606;2023-03-16T03:36:12;100843.03;;;6.28;50.66
68822;BME280;55834;50.870;4.606;2023-03-16T03:38:38;100849.16;;;6.32;51.10
68822;BME280;55834;50.870;4.606;2023-03-16T03:41:04;100843.94;;;6.29;51.34
68822;BME280;55834;50.870;4.606;2023-03-16T03:43:31;100833.72;;;5.97;51.86
68822;BME280;55834;50.870;4.606;2023-03-16T03:46:00;100834.44;;;6.16;51.91
68822;BME280;55834;50.870;4.606;2023-03-16T03:48:27;100830.81;;;6.30;51.31
68822;BME280;55834;50.870;4.606;2023-03-16T03:50:53;100836.00;;;6.38;50.95
68822;BME280;55834;50.870;4.606;2023-03-16T03:53:19;100833.53;;;6.17;51.06
68822;BME280;55834;50.870;4.606;2023-03-16T03:55:44;100836.06;;;6.27;51.12
68822;BME280;55834;50.870;4.606;2023-03-16T03:58:10;100830.78;;;6.33;50.75
68822;BME280;55834;50.870;4.606;2023-03-16T04:00:36;100824.69;;;6.31;50.55
68822;BME280;55834;50.870;4.606;2023-03-16T04:03:02;100821.41;;;6.05;51.20
68822;BME280;55834;50.870;4.606;2023-03-16T04:05:28;100821.31;;;6.20;50.97
68822;BME280;55834;50.870;4.606;2023-03-16T04:07:54;100816.81;;;6.28;50.38
68822;BME280;55834;50.870;4.606;2023-03-16T04:10:22;100809.91;;;6.23;50.68
68822;BME280;55834;50.870;4.606;2023-03-16T04:12:48;100808.97;;;6.28;50.58
68822;BME280;55834;50.870;4.606;2023-03-16T04:15:13;100807.13;;;6.37;50.38
68822;BME280;55834;50.870;4.606;2023-03-16T04:17:38;100800.16;;;6.37;49.86
68822;BME280;55834;50.870;4.606;2023-03-16T04:20:04;100802.84;;;6.28;49.61
68822;BME280;55834;50.870;4.606;2023-03-16T04:22:35;100798.41;;;6.38;50.42
68822;BME280;55834;50.870;4.606;2023-03-16T04:25:01;100794.03;;;6.38;50.03
68822;BME280;55834;50.870;4.606;2023-03-16T04:27:29;100796.69;;;6.35;50.10
68822;BME280;55834;50.870;4.606;2023-03-16T04:30:01;100795.91;;;6.22;49.89
68822;BME280;55834;50.870;4.606;2023-03-16T04:32:26;100790.63;;;6.25;50.09
68822;BME280;55834;50.870;4.606;2023-03-16T04:34:51;100790.78;;;6.10;50.32
68822;BME280;55834;50.870;4.606;2023-03-16T04:37:19;100792.47;;;6.20;50.05
68822;BME280;55834;50.870;4.606;2023-03-16T04:39:46;100791.56;;;6.21;50.05
68822;BME280;55834;50.870;4.606;2023-03-16T04:42:11;100791.56;;;6.21;50.03
68822;BME280;55834;50.870;4.606;2023-03-16T04:44:37;100781.09;;;6.17;50.02
68822;BME280;55834;50.870;4.606;2023-03-16T04:47:11;100779.56;;;5.97;50.06
68822;BME280;55834;50.870;4.606;2023-03-16T04:49:37;100784.16;;;5.66;50.51
68822;BME280;55834;50.870;4.606;2023-03-16T04:52:02;100776.03;;;5.98;51.50
68822;BME280;55834;50.870;4.606;2023-03-16T04:54:29;100777.81;;;5.96;50.70
68822;BME280;55834;50.870;4.606;2023-03-16T04:56:54;100772.63;;;5.90;51.21
68822;BME280;55834;50.870;4.606;2023-03-16T04:59:20;100774.25;;;6.03;51.43
68822;BME280;55834;50.870;4.606;2023-03-16T05:01:45;100772.81;;;5.67;51.54
68822;BME280;55834;50.870;4.606;2023-03-16T05:04:10;100775.31;;;5.82;51.37
68822;BME280;55834;50.870;4.606;2023-03-16T05:06:36;100781.16;;;6.10;51.08
68822;BME280;55834;50.870;4.606;2023-03-16T05:09:02;100766.25;;;6.20;50.52
68822;BME280;55834;50.870;4.606;2023-03-16T05:11:32;100773.13;;;6.30;50.13
68822;BME280;55834;50.870;4.606;2023-03-16T05:13:57;100769.63;;;6.28;50.31
68822;BME280;55834;50.870;4.606;2023-03-16T05:16:23;100764.38;;;6.30;50.12
68822;BME280;55834;50.870;4.606;2023-03-16T05:18:48;100767.16;;;6.15;50.98
68822;BME280;55834;50.870;4.606;2023-03-16T05:21:14;100758.44;;;6.13;50.60
68822;BME280;55834;50.870;4.606;2023-03-16T05:23:40;100756.75;;;6.07;50.45
68822;BME280;55834;50.870;4.606;2023-03-16T05:26:06;100758.44;;;6.14;51.17
68822;BME280;55834;50.870;4.606;2023-03-16T05:28:31;100754.91;;;6.18;50.26
68822;BME280;55834;50.870;4.606;2023-03-16T05:30:57;100765.34;;;6.23;50.36
68822;BME280;55834;50.870;4.606;2023-03-16T05:33:22;100754.84;;;6.21;50.56
68822;BME280;55834;50.870;4.606;2023-03-16T05:35:49;100752.25;;;6.20;50.53
68822;BME280;55834;50.870;4.606;2023-03-16T05:38:15;100759.16;;;6.28;50.62
68822;BME280;55834;50.870;4.606;2023-03-16T05:40:40;100746.97;;;6.26;50.07
68822;BME280;55834;50.870;4.606;2023-03-16T05:43:06;100752.66;;;5.75;50.78
68822;BME280;55834;50.870;4.606;2023-03-16T05:45:32;100751.59;;;5.98;51.16
68822;BME280;55834;50.870;4.606;2023-03-16T05:47:57;100748.00;;;6.08;50.84
68822;BME280;55834;50.870;4.606;2023-03-16T05:50:23;100754.97;;;6.10;50.55
68822;BME280;55834;50.870;4.606;2023-03-16T05:52:48;100750.19;;;5.55;51.63
68822;BME280;55834;50.870;4.606;2023-03-16T05:55:15;100749.16;;;5.78;51.50
68822;BME280;55834;50.870;4.606;2023-03-16T05:57:41;100753.50;;;5.80;51.85
68822;BME280;55834;50.870;4.606;2023-03-16T06:00:16;100752.53;;;5.89;51.67
68822;BME280;55834;50.870;4.606;2023-03-16T06:02:47;100748.13;;;5.97;51.02
68822;BME280;55834;50.870;4.606;2023-03-16T06:05:13;100751.66;;;5.90;51.19
68822;BME280;55834;50.870;4.606;2023-03-16T06:07:38;100745.59;;;5.88;51.39
68822;BME280;55834;50.870;4.606;2023-03-16T06:10:04;100752.38;;;6.09;51.34
68822;BME280;55834;50.870;4.606;2023-03-16T06:12:30;100753.19;;;6.11;50.31
68822;BME280;55834;50.870;4.606;2023-03-16T06:14:56;100750.53;;;6.17;50.46
68822;BME280;55834;50.870;4.606;2023-03-16T06:17:21;100749.69;;;6.14;50.36
68822;BME280;55834;50.870;4.606;2023-03-16T06:19:47;100745.31;;;6.16;50.54
68822;BME280;55834;50.870;4.606;2023-03-16T06:22:12;100746.03;;;6.31;49.69
68822;BME280;55834;50.870;4.606;2023-03-16T06:24:37;100738.13;;;6.33;49.69
68822;BME280;55834;50.870;4.606;2023-03-16T06:27:03;100741.75;;;6.20;49.69
68822;BME280;55834;50.870;4.606;2023-03-16T06:29:28;100749.56;;;6.27;49.78
68822;BME280;55834;50.870;4.606;2023-03-16T06:31:54;100736.41;;;6.30;49.62
68822;BME280;55834;50.870;4.606;2023-03-16T06:34:19;100736.81;;;5.87;50.71
68822;BME280;55834;50.870;4.606;2023-03-16T06:36:45;100742.78;;;6.05;50.03
68822;BME280;55834;50.870;4.606;2023-03-16T06:39:10;100730.53;;;6.07;50.05
68822;BME280;55834;50.870;4.606;2023-03-16T06:41:35;100717.22;;;6.27;49.55
68822;BME280;55834;50.870;4.606;2023-03-16T06:44:02;100717.97;;;6.37;49.55
68822;BME280;55834;50.870;4.606;2023-03-16T06:46:27;100716.47;;;6.17;49.58
68822;BME280;55834;50.870;4.606;2023-03-16T06:48:53;100726.03;;;6.21;49.59
68822;BME280;55834;50.870;4.606;2023-03-16T06:51:18;100725.16;;;6.21;48.72
68822;BME280;55834;50.870;4.606;2023-03-16T06:53:43;100729.38;;;6.37;49.33
68822;BME280;55834;50.870;4.606;2023-03-16T06:56:09;100738.47;;;5.99;49.36
68822;BME280;55834;50.870;4.606;2023-03-16T06:58:34;100719.16;;;6.08;49.72
68822;BME280;55834;50.870;4.606;2023-03-16T07:01:01;100723.66;;;5.95;50.18
68822;BME280;55834;50.870;4.606;2023-03-16T07:03:27;100736.03;;;5.81;49.88
68822;BME280;55834;50.870;4.606;2023-03-16T07:05:53;100737.75;;;5.83;50.83
68822;BME280;55834;50.870;4.606;2023-03-16T07:08:18;100741.97;;;6.00;49.97
68822;BME280;55834;50.870;4.606;2023-03-16T07:10:43;100737.47;;;6.14;49.66
68822;BME280;55834;50.870;4.606;2023-03-16T07:13:09;100729.50;;;6.23;49.24
68822;BME280;55834;50.870;4.606;2023-03-16T07:15:34;100724.50;;;6.00;49.88
68822;BME280;55834;50.870;4.606;2023-03-16T07:17:59;100728.91;;;5.94;50.15
68822;BME280;55834;50.870;4.606;2023-03-16T07:20:25;100730.38;;;6.24;48.96
68822;BME280;55834;50.870;4.606;2023-03-16T07:22:52;100740.72;;;6.38;48.81
68822;BME280;55834;50.870;4.606;2023-03-16T07:25:17;100737.19;;;6.39;49.02
68822;BME280;55834;50.870;4.606;2023-03-16T07:27:43;100731.00;;;6.46;48.86
68822;BME280;55834;50.870;4.606;2023-03-16T07:30:10;100730.03;;;6.53;47.88
68822;BME280;55834;50.870;4.606;2023-03-16T07:32:39;100726.41;;;6.65;47.77
68822;BME280;55834;50.870;4.606;2023-03-16T07:35:04;100737.31;;;6.29;48.91
68822;BME280;55834;50.870;4.606;2023-03-16T07:37:30;100733.75;;;6.33;48.86
68822;BME280;55834;50.870;4.606;2023-03-16T07:39:56;100723.66;;;5.94;49.55
68822;BME280;55834;50.870;4.606;2023-03-16T07:42:21;100720.78;;;6.23;49.75
68822;BME280;55834;50.870;4.606;2023-03-16T07:44:47;100721.78;;;6.85;48.49
68822;BME280;55834;50.870;4.606;2023-03-16T07:47:13;100726.59;;;7.19;47.74
68822;BME280;55834;50.870;4.606;2023-03-16T07:49:38;100725.41;;;6.76;47.52
68822;BME280;55834;50.870;4.606;2023-03-16T07:52:05;100721.28;;;7.20;47.87
68822;BME280;55834;50.870;4.606;2023-03-16T07:54:31;100728.28;;;7.23;47.55
68822;BME280;55834;50.870;4.606;2023-03-16T07:56:56;100725.69;;;6.52;47.97
68822;BME280;55834;50.870;4.606;2023-03-16T07:59:22;100728.25;;;7.24;47.65
68822;BME280;55834;50.870;4.606;2023-03-16T08:01:48;100721.16;;;7.30;45.84
68822;BME280;55834;50.870;4.606;2023-03-16T08:04:13;100728.13;;;6.72;47.25
68822;BME280;55834;50.870;4.606;2023-03-16T08:06:39;100735.28;;;6.54;47.35
68822;BME280;55834;50.870;4.606;2023-03-16T08:09:04;100727.19;;;6.74;45.66
68822;BME280;55834;50.870;4.606;2023-03-16T08:11:30;100738.06;;;6.41;47.34
68822;BME280;55834;50.870;4.606;2023-03-16T08:13:55;100749.81;;;6.83;45.52
68822;BME280;55834;50.870;4.606;2023-03-16T08:16:25;100739.38;;;6.78;46.60
68822;BME280;55834;50.870;4.606;2023-03-16T08:18:51;100730.00;;;7.26;46.89
68822;BME280;55834;50.870;4.606;2023-03-16T08:21:18;100736.63;;;6.89;46.54
68822;BME280;55834;50.870;4.606;2023-03-16T08:23:44;100740.16;;;6.87;46.08
68822;BME280;55834;50.870;4.606;2023-03-16T08:26:11;100729.06;;;7.28;44.70
68822;BME280;55834;50.870;4.606;2023-03-16T08:28:36;100729.75;;;7.41;44.48
68822;BME280;55834;50.870;4.606;2023-03-16T08:31:06;100725.72;;;7.73;45.42
68822;BME280;55834;50.870;4.606;2023-03-16T08:33:31;100730.53;;;7.46;44.75
68822;BME280;55834;50.870;4.606;2023-03-16T08:35:56;100740.41;;;6.64;45.89
68822;BME280;55834;50.870;4.606;2023-03-16T08:38:22;100721.34;;;7.17;44.99
68822;BME280;55834;50.870;4.606;2023-03-16T08:40:49;100718.84;;;7.08;44.31
68822;BME280;55834;50.870;4.606;2023-03-16T08:43:16;100714.63;;;7.55;44.72
68822;BME280;55834;50.870;4.606;2023-03-16T08:45:44;100721.75;;;6.90;43.89
68822;BME280;55834;50.870;4.606;2023-03-16T08:48:09;100720.03;;;6.86;45.37
68822;BME280;55834;50.870;4.606;2023-03-16T08:50:39;100716.97;;;7.18;44.48
68822;BME280;55834;50.870;4.606;2023-03-16T08:53:05;100717.84;;;7.74;44.10
68822;BME280;55834;50.870;4.606;2023-03-16T08:55:31;100718.81;;;7.67;43.10
68822;BME280;55834;50.870;4.606;2023-03-16T08:57:56;100720.53;;;7.71;43.81
68822;BME280;55834;50.870;4.606;2023-03-16T09:00:22;100708.19;;;8.26;44.36
68822;BME280;55834;50.870;4.606;2023-03-16T09:02:47;100712.47;;;8.73;41.97
68822;BME280;55834;50.870;4.606;2023-03-16T09:05:14;100719.38;;;8.37;41.91
68822;BME280;55834;50.870;4.606;2023-03-16T09:07:40;100707.13;;;8.34;42.38
68822;BME280;55834;50.870;4.606;2023-03-16T09:10:08;100706.31;;;8.74;41.31
68822;BME280;55834;50.870;4.606;2023-03-16T09:12:37;100722.69;;;8.45;41.27
68822;BME280;55834;50.870;4.606;2023-03-16T09:15:05;100718.41;;;8.40;41.17
68822;BME280;55834;50.870;4.606;2023-03-16T09:17:31;100718.16;;;8.94;40.86
68822;BME280;55834;50.870;4.606;2023-03-16T09:19:57;100726.75;;;8.63;40.63
68822;BME280;55834;50.870;4.606;2023-03-16T09:22:22;100726.47;;;8.30;41.29
68822;BME280;55834;50.870;4.606;2023-03-16T09:24:48;100709.03;;;8.70;41.76
68822;BME280;55834;50.870;4.606;2023-03-16T09:27:15;100713.66;;;8.58;41.61
68822;BME280;55834;50.870;4.606;2023-03-16T09:29:41;100716.53;;;7.98;41.68
68822;BME280;55834;50.870;4.606;2023-03-16T09:32:07;100711.06;;;8.57;41.41
68822;BME280;55834;50.870;4.606;2023-03-16T09:34:33;100708.25;;;8.66;41.48
68822;BME280;55834;50.870;4.606;2023-03-16T09:36:58;100718.53;;;8.33;40.42
68822;BME280;55834;50.870;4.606;2023-03-16T09:39:24;100714.34;;;8.23;41.23
68822;BME280;55834;50.870;4.606;2023-03-16T09:41:52;100704.09;;;8.09;41.18
68822;BME280;55834;50.870;4.606;2023-03-16T09:44:46;100701.59;;;8.90;41.48
68822;BME280;55834;50.870;4.606;2023-03-16T09:47:24;100703.66;;;8.76;39.59
68822;BME280;55834;50.870;4.606;2023-03-16T09:49:54;100694.44;;;8.95;40.60
68822;BME280;55834;50.870;4.606;2023-03-16T09:52:30;100692.31;;;9.50;39.54
68822;BME280;55834;50.870;4.606;2023-03-16T09:54:59;100690.28;;;9.61;39.93
68822;BME280;55834;50.870;4.606;2023-03-16T09:57:34;100688.34;;;9.32;39.77
68822;BME280;55834;50.870;4.606;2023-03-16T10:00:23;100688.31;;;8.95;40.29
68822;BME280;55834;50.870;4.606;2023-03-16T10:02:59;100702.56;;;8.86;39.87
68822;BME280;55834;50.870;4.606;2023-03-16T10:05:27;100696.53;;;8.81;40.02
68822;BME280;55834;50.870;4.606;2023-03-16T10:16:26;100689.28;;;9.28;39.61
68822;BME280;55834;50.870;4.606;2023-03-16T10:18:59;100692.78;;;9.28;38.92
68822;BME280;55834;50.870;4.606;2023-03-16T10:21:26;100688.16;;;9.41;38.86
68822;BME280;55834;50.870;4.606;2023-03-16T10:23:53;100670.56;;;9.76;37.89
68822;BME280;55834;50.870;4.606;2023-03-16T10:26:36;100686.53;;;9.36;38.29
68822;BME280;55834;50.870;4.606;2023-03-16T10:29:12;100684.81;;;9.69;38.32
68822;BME280;55834;50.870;4.606;2023-03-16T10:31:40;100677.41;;;9.49;38.09
68822;BME280;55834;50.870;4.606;2023-03-16T10:34:05;100668.75;;;9.78;38.21
68822;BME280;55834;50.870;4.606;2023-03-16T10:36:34;100663.19;;;9.19;37.60
68822;BME280;55834;50.870;4.606;2023-03-16T10:39:06;100664.78;;;9.62;37.61
68822;BME280;55834;50.870;4.606;2023-03-16T10:41:37;100655.34;;;9.87;36.11
68822;BME280;55834;50.870;4.606;2023-03-16T10:44:38;100662.94;;;9.65;36.80
68822;BME280;55834;50.870;4.606;2023-03-16T10:47:05;100646.81;;;10.10;37.51
68822;BME280;55834;50.870;4.606;2023-03-16T10:49:42;100649.19;;;10.51;36.04
68822;BME280;55834;50.870;4.606;2023-03-16T10:52:36;100656.16;;;9.55;36.32
68822;BME280;55834;50.870;4.606;2023-03-16T10:55:07;100646.94;;;9.73;37.35
68822;BME280;55834;50.870;4.606;2023-03-16T10:57:35;100654.06;;;10.02;36.51
68822;BME280;55834;50.870;4.606;2023-03-16T11:00:11;100650.03;;;10.20;36.55
68822;BME280;55834;50.870;4.606;2023-03-16T11:02:39;100642.00;;;9.93;35.99
68822;BME280;55834;50.870;4.606;2023-03-16T11:05:24;100624.59;;;10.17;36.46
68822;BME280;55834;50.870;4.606;2023-03-16T11:08:04;100630.66;;;10.21;37.13
68822;BME280;55834;50.870;4.606;2023-03-16T11:10:36;100620.44;;;10.40;37.55
68822;BME280;55834;50.870;4.606;2023-03-16T11:13:12;100612.56;;;10.07;37.24
68822;BME280;55834;50.870;4.606;2023-03-16T11:15:45;100617.53;;;10.51;37.24
68822;BME280;55834;50.870;4.606;2023-03-16T11:18:23;100620.38;;;10.42;37.54
68822;BME280;55834;50.870;4.606;2023-03-16T11:20:52;100611.25;;;10.83;37.17
68822;BME280;55834;50.870;4.606;2023-03-16T11:23:23;100618.31;;;10.53;35.66
68822;BME280;55834;50.870;4.606;2023-03-16T11:25:52;100614.47;;;9.71;35.55
68822;BME280;55834;50.870;4.606;2023-03-16T11:31:19;100598.03;;;10.24;36.51
68822;BME280;55834;50.870;4.606;2023-03-16T11:33:48;100600.84;;;10.47;35.68
68822;BME280;55834;50.870;4.606;2023-03-16T11:36:52;100581.81;;;10.94;36.45
68822;BME280;55834;50.870;4.606;2023-03-16T11:39:31;100580.28;;;10.60;35.89
68822;BME280;55834;50.870;4.606;2023-03-16T11:55:44;100590.28;;;10.47;35.24
68822;BME280;55834;50.870;4.606;2023-03-16T12:01:05;100575.78;;;10.90;35.47
68822;BME280;55834;50.870;4.606;2023-03-16T12:11:53;100563.97;;;10.74;34.19
68822;BME280;55834;50.870;4.606;2023-03-16T12:14:42;100559.41;;;9.91;34.77
68822;BME280;55834;50.870;4.606;2023-03-16T12:17:15;100549.53;;;10.86;35.31
68822;BME280;55834;50.870;4.606;2023-03-16T12:22:31;100533.44;;;10.93;34.14
68822;BME280;55834;50.870;4.606;2023-03-16T12:24:58;100525.56;;;10.35;35.06
68822;BME280;55834;50.870;4.606;2023-03-16T12:27:27;100538.50;;;10.99;35.73
68822;BME280;55834;50.870;4.606;2023-03-16T12:30:26;100529.63;;;11.02;34.22
68822;BME280;55834;50.870;4.606;2023-03-16T12:38:34;100524.09;;;11.35;33.62
68822;BME280;55834;50.870;4.606;2023-03-16T12:41:26;100501.25;;;11.82;33.28
68822;BME280;55834;50.870;4.606;2023-03-16T12:49:18;100493.13;;;11.13;33.83
68822;BME280;55834;50.870;4.606;2023-03-16T12:51:45;100476.63;;;11.80;32.92
68822;BME280;55834;50.870;4.606;2023-03-16T12:54:23;100489.94;;;11.03;32.63
68822;BME280;55834;50.870;4.606;2023-03-16T12:56:50;100472.16;;;11.34;34.17
68822;BME280;55834;50.870;4.606;2023-03-16T12:59:22;100466.53;;;10.93;33.63
68822;BME280;55834;50.870;4.606;2023-03-16T13:01:51;100467.50;;;11.65;33.22
68822;BME280;55834;50.870;4.606;2023-03-16T13:04:21;100456.25;;;11.35;32.86
68822;BME280;55834;50.870;4.606;2023-03-16T13:06:50;100446.19;;;10.70;32.39
68822;BME280;55834;50.870;4.606;2023-03-16T13:09:27;100427.44;;;11.02;32.63
68822;BME280;55834;50.870;4.606;2023-03-16T13:11:53;100430.06;;;11.52;32.84
68822;BME280;55834;50.870;4.606;2023-03-16T13:14:38;100433.94;;;12.13;31.19
68822;BME280;55834;50.870;4.606;2023-03-16T13:17:21;100437.19;;;11.74;31.99
68822;BME280;55834;50.870;4.606;2023-03-16T13:19:59;100442.50;;;12.19;31.67
68822;BME280;55834;50.870;4.606;2023-03-16T13:22:39;100433.75;;;12.17;29.98
68822;BME280;55834;50.870;4.606;2023-03-16T13:27:48;100440.91;;;11.20;33.02
68822;BME280;55834;50.870;4.606;2023-03-16T13:32:44;100425.63;;;11.53;31.18
68822;BME280;55834;50.870;4.606;2023-03-16T13:35:13;100426.25;;;11.36;32.57
68822;BME280;55834;50.870;4.606;2023-03-16T13:37:41;100425.66;;;11.77;30.82
68822;BME280;55834;50.870;4.606;2023-03-16T13:40:23;100422.44;;;11.68;32.23
68822;BME280;55834;50.870;4.606;2023-03-16T13:42:51;100423.03;;;12.20;31.25
68822;BME280;55834;50.870;4.606;2023-03-16T13:45:26;100424.31;;;11.88;31.58
68822;BME280;55834;50.870;4.606;2023-03-16T13:47:52;100417.63;;;12.24;31.09
68822;BME280;55834;50.870;4.606;2023-03-16T13:50:18;100417.19;;;12.34;32.09
68822;BME280;55834;50.870;4.606;2023-03-16T13:52:52;100412.13;;;12.72;31.50
68822;BME280;55834;50.870;4.606;2023-03-16T13:55:26;100410.66;;;12.65;30.32
68822;BME280;55834;50.870;4.606;2023-03-16T13:57:54;100406.38;;;12.83;31.00
68822;BME280;55834;50.870;4.606;2023-03-16T14:00:23;100403.06;;;12.56;30.96
68822;BME280;55834;50.870;4.606;2023-03-16T14:02:54;100396.78;;;12.16;31.77
68822;BME280;55834;50.870;4.606;2023-03-16T14:05:32;100394.44;;;12.08;30.87
68822;BME280;55834;50.870;4.606;2023-03-16T14:07:59;100386.75;;;12.45;31.66